Time;durP1;ratioP1;P1;durP2;ratioP2;P2;SDS_P1;SDS_P2;PMS_P1;PMS_P2;Temp;Humidity;BMP_temperature;BMP_pressure;BME280_temperature;BME280_humidity;BME280_pressure;Samples;Min_cycle;Max_cycle;Signal;HPM_P1;HPM_P2
2023/04/11 00:01:25;;;;;;;16.23;11.73;;;;;;;9.62;88.12;96570.28;5089796;28;20177;-83
2023/04/11 00:03:53;;;;;;;17.00;11.43;;;;;;;9.57;87.97;96562.75;5089981;28;20277;-76
2023/04/11 00:06:20;;;;;;;17.83;12.00;;;;;;;9.77;87.91;96578.09;5089706;28;20235;-80
2023/04/11 00:08:47;;;;;;;17.47;11.87;;;;;;;9.60;88.55;96570.34;5089742;28;20272;-79
2023/04/11 00:11:14;;;;;;;20.40;12.37;;;;;;;9.68;87.82;96568.25;5089424;28;20230;-77
2023/04/11 00:13:42;;;;;;;19.00;13.27;;;;;;;9.75;88.02;96579.94;5089380;28;20635;-76
2023/04/11 00:16:09;;;;;;;18.63;13.30;;;;;;;9.63;81.09;96570.22;5089214;28;20586;-83
2023/04/11 00:18:38;;;;;;;18.20;13.33;;;;;;;9.63;81.37;96551.25;5089247;28;20277;-80
2023/04/11 00:21:09;;;;;;;18.53;13.37;;;;;;;9.81;80.50;96564.09;5089382;28;20220;-81
2023/04/11 00:23:36;;;;;;;19.77;13.90;;;;;;;9.69;79.15;96528.53;5092753;28;20185;-84
2023/04/11 00:26:04;;;;;;;17.77;12.67;;;;;;;9.78;78.24;96550.50;5090394;28;20591;-76
2023/04/11 00:28:31;;;;;;;19.30;12.97;;;;;;;9.44;77.69;96517.75;5092478;28;20289;-80
2023/04/11 00:30:58;;;;;;;18.73;12.67;;;;;;;9.57;79.37;96565.34;5089586;28;20204;-87
2023/04/11 00:33:25;;;;;;;16.63;11.67;;;;;;;9.47;80.48;96556.38;5054679;28;20189;-79
2023/04/11 00:35:52;;;;;;;18.00;12.60;;;;;;;9.38;80.34;96556.81;5088408;28;20670;-83
2023/04/11 00:38:19;;;;;;;18.33;13.17;;;;;;;9.32;81.88;96556.25;5089306;28;20196;-85
2023/04/11 00:40:46;;;;;;;18.43;13.03;;;;;;;9.26;82.09;96556.56;5070554;28;20234;-84
2023/04/11 00:43:13;;;;;;;20.07;13.57;;;;;;;9.34;83.10;96550.13;5088865;28;20276;-82
2023/04/11 00:45:41;;;;;;;20.87;13.40;;;;;;;9.52;83.26;96546.63;5088928;28;20189;-85
2023/04/11 00:48:08;;;;;;;23.57;13.87;;;;;;;9.66;82.29;96545.97;5089000;28;20185;-81
2023/04/11 00:50:40;;;;;;;20.13;13.77;;;;;;;9.73;82.71;96532.63;5089059;28;20246;-82
2023/04/11 00:53:09;;;;;;;19.87;13.87;;;;;;;9.88;82.65;96541.38;5088750;28;20276;-79
2023/04/11 00:55:36;;;;;;;21.43;14.70;;;;;;;9.77;81.11;96543.66;5089756;28;20180;-86
2023/04/11 00:58:05;;;;;;;20.30;14.03;;;;;;;9.78;82.36;96543.59;5110311;28;20189;-78
2023/04/11 01:00:34;;;;;;;20.60;13.70;;;;;;;9.91;82.03;96542.97;5076020;28;20212;-85
2023/04/11 01:03:01;;;;;;;20.07;14.20;;;;;;;9.98;82.84;96542.56;5104434;28;20975;-77
2023/04/11 01:05:30;;;;;;;20.37;13.70;;;;;;;9.91;82.37;96545.56;5088819;28;20725;-84
2023/04/11 01:07:58;;;;;;;17.80;13.80;;;;;;;9.92;81.59;96552.38;5070487;28;20189;-80
2023/04/11 01:10:29;;;;;;;16.40;11.70;;;;;;;9.81;80.74;96547.75;5070827;28;20237;-83
2023/04/11 01:12:59;;;;;;;16.43;11.63;;;;;;;9.66;79.65;96538.19;5104228;28;20185;-77
2023/04/11 01:15:26;;;;;;;18.53;12.67;;;;;;;9.63;80.28;96541.78;5088447;28;20267;-77
2023/04/11 01:17:54;;;;;;;15.80;11.50;;;;;;;9.59;80.20;96558.34;5089281;28;20184;-75
2023/04/11 01:20:21;;;;;;;15.60;11.47;;;;;;;9.45;80.91;96534.94;5069576;28;20224;-83
2023/04/11 01:22:49;;;;;;;16.40;11.63;;;;;;;9.39;82.05;96522.31;5047907;28;20228;-75
2023/04/11 01:25:21;;;;;;;17.70;12.73;;;;;;;9.40;82.10;96526.56;5046514;28;20242;-74
2023/04/11 01:27:48;;;;;;;15.27;10.83;;;;;;;9.32;81.60;96533.84;5046300;28;20189;-81
2023/04/11 01:30:15;;;;;;;13.83;10.10;;;;;;;9.31;82.52;96524.44;5047834;28;20198;-83
2023/04/11 01:32:42;;;;;;;14.10;10.00;;;;;;;9.41;81.83;96525.66;5046415;28;20244;-81
2023/04/11 01:35:11;;;;;;;13.23;9.03;;;;;;;9.35;81.70;96523.38;5047966;28;20186;-84
2023/04/11 01:37:38;;;;;;;10.67;7.70;;;;;;;9.32;81.52;96533.84;5047396;28;20244;-87
2023/04/11 01:40:06;;;;;;;12.27;7.90;;;;;;;9.17;82.17;96521.66;5046080;28;20214;-80
2023/04/11 01:42:35;;;;;;;11.50;8.00;;;;;;;9.14;82.56;96516.66;5048384;28;20190;-75
2023/04/11 01:45:05;;;;;;;11.00;7.70;;;;;;;8.97;82.51;96516.63;5081821;28;20186;-81
2023/04/11 01:47:33;;;;;;;11.57;8.40;;;;;;;9.00;81.84;96516.50;5046387;28;20284;-83
2023/04/11 01:50:00;;;;;;;9.93;6.90;;;;;;;8.98;80.17;96501.06;5048142;28;20186;-87
2023/04/11 01:52:28;;;;;;;10.43;7.13;;;;;;;8.90;80.29;96503.19;5047142;28;20190;-88
2023/04/11 01:54:55;;;;;;;8.47;6.50;;;;;;;8.85;80.73;96493.97;5047490;28;20239;-85
2023/04/11 01:57:22;;;;;;;11.43;6.80;;;;;;;8.93;81.11;96497.03;5046072;28;20186;-83
2023/04/11 01:59:49;;;;;;;10.60;7.43;;;;;;;8.92;80.48;96495.38;5045809;28;20217;-81
2023/04/11 02:02:15;;;;;;;10.47;7.70;;;;;;;8.94;80.08;96488.41;5045760;28;20202;-85
2023/04/11 02:04:43;;;;;;;9.67;7.20;;;;;;;8.78;79.88;96459.88;5047458;28;20178;-83
2023/04/11 02:07:13;;;;;;;12.63;8.30;;;;;;;8.92;80.91;96479.88;5045493;28;20715;-82
2023/04/11 02:09:40;;;;;;;13.97;9.93;;;;;;;8.99;80.52;96481.25;5047459;28;20189;-86
2023/04/11 02:12:09;;;;;;;13.30;10.03;;;;;;;9.08;80.52;96477.38;5046842;28;20192;-82
2023/04/11 02:14:44;;;;;;;16.03;10.63;;;;;;;9.07;79.99;96462.81;5048037;28;20190;-85
2023/04/11 02:17:12;;;;;;;16.10;11.47;;;;;;;9.03;80.08;96457.78;5045461;28;20200;-83
2023/04/11 02:19:40;;;;;;;17.77;11.70;;;;;;;9.14;80.30;96459.84;5045500;28;20221;-81
2023/04/11 02:22:08;;;;;;;18.77;12.77;;;;;;;9.13;79.94;96468.50;5045596;28;20705;-83
2023/04/11 02:24:35;;;;;;;18.60;13.40;;;;;;;9.23;79.84;96464.56;5046721;28;20248;-85
2023/04/11 02:27:02;;;;;;;19.67;14.03;;;;;;;9.09;79.14;96435.97;5047050;28;20207;-79
2023/04/11 02:29:29;;;;;;;20.37;13.83;;;;;;;9.27;79.58;96458.34;5045101;28;20232;-82
2023/04/11 02:31:56;;;;;;;21.17;13.83;;;;;;;9.12;80.06;96466.84;5046742;28;20189;-83
2023/04/11 02:34:23;;;;;;;20.10;14.40;;;;;;;9.16;80.61;96462.34;5045418;28;20194;-82
2023/04/11 02:36:50;;;;;;;18.20;13.97;;;;;;;9.17;80.96;96461.44;5045189;28;20300;-81
2023/04/11 02:39:19;;;;;;;20.37;14.93;;;;;;;9.15;81.89;96456.34;5046490;28;20277;-83
2023/04/11 02:41:46;;;;;;;20.13;14.30;;;;;;;9.13;81.86;96468.50;5046603;28;20189;-82
2023/04/11 02:44:13;;;;;;;21.23;14.17;;;;;;;9.16;82.77;96455.44;5047480;28;20735;-82
2023/04/11 02:46:42;;;;;;;22.30;14.20;;;;;;;9.12;83.17;96453.06;5045371;28;20185;-84
2023/04/11 02:49:10;;;;;;;22.83;15.00;;;;;;;9.16;83.12;96444.25;5045734;28;20185;-83
2023/04/11 02:51:37;;;;;;;19.87;14.73;;;;;;;9.23;83.39;96445.63;5045522;28;20188;-82
2023/04/11 02:54:05;;;;;;;21.37;15.00;;;;;;;9.28;83.36;96430.72;5044990;28;20191;-83
2023/04/11 02:56:37;;;;;;;25.37;15.73;;;;;;;9.31;83.30;96426.25;5045612;28;20189;-83
2023/04/11 02:59:07;;;;;;;17.87;12.90;;;;;;;9.33;81.35;96427.03;5061321;28;20248;-82
2023/04/11 03:01:36;;;;;;;16.43;12.53;;;;;;;9.18;80.80;96408.84;5069300;28;20217;-85
2023/04/11 03:04:04;;;;;;;19.87;12.77;;;;;;;9.32;80.38;96404.66;5049910;28;20199;-84
2023/04/11 03:06:41;;;;;;;18.70;13.37;;;;;;;9.41;80.80;96416.28;5033783;28;20197;-86
2023/04/11 03:09:08;;;;;;;17.50;12.80;;;;;;;9.37;80.71;96409.59;5049505;28;20285;-85
2023/04/11 03:11:36;;;;;;;19.23;13.70;;;;;;;9.50;80.77;96415.81;5050194;28;20259;-85
2023/04/11 03:14:04;;;;;;;19.00;12.93;;;;;;;9.54;80.63;96430.25;5050453;28;20640;-85
2023/04/11 03:16:31;;;;;;;18.80;13.03;;;;;;;9.57;79.79;96420.59;5044445;28;20201;-86
2023/04/11 03:18:59;;;;;;;19.07;13.37;;;;;;;9.55;79.61;96421.56;5030068;28;20213;-86
2023/04/11 03:21:26;;;;;;;22.50;13.63;;;;;;;9.56;79.14;96424.06;5044852;28;20328;-86
2023/04/11 03:23:53;;;;;;;19.20;14.33;;;;;;;9.53;79.25;96426.84;5074204;28;20577;-77
2023/04/11 03:26:20;;;;;;;22.30;14.67;;;;;;;9.51;78.27;96428.66;5065478;28;20197;-86
2023/04/11 03:28:48;;;;;;;19.80;14.03;;;;;;;9.54;77.95;96418.16;5093691;28;20185;-87
2023/04/11 03:31:18;;;;;;;22.00;14.63;;;;;;;9.46;78.44;96412.53;5082559;28;20201;-75
2023/04/11 03:33:47;;;;;;;22.67;15.30;;;;;;;9.52;78.74;96421.75;5101774;28;20260;-78
2023/04/11 03:36:14;;;;;;;21.57;14.67;;;;;;;9.60;78.69;96415.25;5074164;28;20181;-85
2023/04/11 03:38:41;;;;;;;21.27;13.87;;;;;;;9.58;78.09;96408.50;5088908;28;20684;-83
2023/04/11 03:41:08;;;;;;;20.93;13.67;;;;;;;9.54;77.17;96412.97;5084705;28;20324;-80
2023/04/11 03:43:35;;;;;;;18.67;13.63;;;;;;;9.64;76.95;96416.75;5070335;28;20196;-83
2023/04/11 03:46:03;;;;;;;23.37;15.43;;;;;;;9.63;77.39;96417.69;5072245;28;20204;-76
2023/04/11 03:48:42;;;;;;;22.83;15.80;;;;;;;9.61;77.18;96424.69;5072961;28;20276;-77
2023/04/11 03:51:10;;;;;;;20.47;13.70;;;;;;;9.61;77.54;96413.50;5073411;28;20610;-77
2023/04/11 03:53:51;;;;;;;19.33;13.27;;;;;;;9.58;76.67;96409.31;5072917;28;20220;-77
2023/04/11 03:56:31;;;;;;;21.47;15.43;;;;;;;9.61;76.86;96411.75;5071644;28;20189;-83
2023/04/11 03:58:59;;;;;;;22.83;13.87;;;;;;;9.71;76.73;96407.78;5071714;28;20189;-82
2023/04/11 04:01:32;;;;;;;18.80;13.40;;;;;;;9.71;76.06;96400.03;5057465;28;20227;-80
2023/04/11 04:04:04;;;;;;;21.80;14.50;;;;;;;9.77;77.03;96404.88;5072238;28;20241;-79
2023/04/11 04:06:35;;;;;;;20.87;14.30;;;;;;;9.75;76.56;96414.44;5072101;28;20185;-74
2023/04/11 04:09:03;;;;;;;20.43;14.23;;;;;;;9.52;76.22;96386.38;5051541;28;20743;-82
2023/04/11 04:11:42;;;;;;;21.90;14.47;;;;;;;9.78;76.30;96401.38;5068961;28;20602;-74
2023/04/11 04:14:09;;;;;;;19.53;13.80;;;;;;;9.76;76.47;96403.22;5070945;28;20177;-84
2023/04/11 04:16:39;;;;;;;20.63;14.00;;;;;;;9.76;76.85;96395.47;5088856;28;20185;-81
2023/04/11 04:19:15;;;;;;;19.13;13.87;;;;;;;9.76;76.20;96392.03;5070819;28;20195;-78
2023/04/11 04:21:45;;;;;;;19.20;14.00;;;;;;;9.75;75.85;96391.19;5071012;28;20251;-81
2023/04/11 04:24:15;;;;;;;20.33;14.40;;;;;;;9.60;76.37;96397.16;5071875;28;20237;-82
2023/04/11 04:26:51;;;;;;;22.50;14.77;;;;;;;9.75;76.85;96385.16;5071612;28;20192;-82
2023/04/11 04:29:37;;;;;;;19.97;13.17;;;;;;;9.63;75.63;96376.31;5071109;28;20184;-74
2023/04/11 04:32:10;;;;;;;20.60;13.70;;;;;;;9.74;75.82;96386.94;5089367;28;20188;-78
2023/04/11 04:34:53;;;;;;;44.40;28.53;;;;;;;9.68;75.52;96364.00;5055368;28;20194;-79
2023/04/11 04:37:28;;;;;;;25.93;16.20;;;;;;;9.89;76.62;96381.88;5071567;28;20184;-80
2023/04/11 04:40:19;;;;;;;25.07;15.13;;;;;;;9.79;75.89;96390.09;5088457;28;20232;-77
2023/04/11 04:42:57;;;;;;;20.77;14.43;;;;;;;9.79;75.87;96384.94;5070652;28;20705;-79
2023/04/11 04:45:39;;;;;;;18.73;13.47;;;;;;;9.75;76.55;96390.34;5071055;28;20710;-84
2023/04/11 04:48:06;;;;;;;19.27;13.60;;;;;;;9.72;76.56;96387.94;5070511;28;20219;-79
2023/04/11 04:50:33;;;;;;;20.93;14.67;;;;;;;9.73;77.09;96387.00;5071166;28;20194;-86
2023/04/11 04:53:00;;;;;;;18.17;13.37;;;;;;;9.62;77.07;96390.16;5088678;28;20660;-80
2023/04/11 04:55:27;;;;;;;17.70;12.57;;;;;;;9.45;77.00;96385.03;5070646;28;20201;-81
2023/04/11 04:57:55;;;;;;;18.97;12.27;;;;;;;9.41;78.02;96383.53;5070683;28;20181;-81
2023/04/11 05:00:22;;;;;;;19.43;12.83;;;;;;;9.46;78.46;96381.53;5054415;28;20212;-83
2023/04/11 05:02:54;;;;;;;18.30;12.43;;;;;;;9.49;78.66;96383.97;5076364;28;20192;-75
2023/04/11 05:05:25;;;;;;;17.23;12.60;;;;;;;9.43;79.76;96381.72;5083702;28;20727;-84
2023/04/11 05:07:52;;;;;;;15.93;11.97;;;;;;;9.36;79.79;96387.25;5073995;28;20272;-82
2023/04/11 05:10:19;;;;;;;16.63;11.27;;;;;;;8.95;79.82;96348.03;5072573;28;20197;-82
2023/04/11 05:12:47;;;;;;;16.13;10.87;;;;;;;9.09;80.66;96404.97;5070712;28;20200;-81
2023/04/11 05:15:14;;;;;;;14.13;10.10;;;;;;;9.06;81.26;96396.56;5088540;28;20275;-80
2023/04/11 05:17:41;;;;;;;14.13;9.63;;;;;;;9.02;81.15;96403.63;5072457;28;20246;-83
2023/04/11 05:20:10;;;;;;;12.33;8.23;;;;;;;9.00;80.52;96397.72;5071155;28;20193;-83
2023/04/11 05:22:38;;;;;;;10.93;7.83;;;;;;;8.89;80.66;96375.00;5093909;28;20220;-84
2023/04/11 05:25:07;;;;;;;10.73;7.57;;;;;;;8.96;80.53;96383.28;5071016;28;20193;-79
2023/04/11 05:27:38;;;;;;;11.03;7.70;;;;;;;8.97;82.04;96382.34;5058770;28;20663;-80
2023/04/11 05:30:05;;;;;;;12.57;7.87;;;;;;;8.96;82.04;96368.59;5055241;28;20254;-80
2023/04/11 05:32:36;;;;;;;9.37;6.63;;;;;;;8.96;82.56;96375.53;5053624;28;20585;-74
2023/04/11 05:35:04;;;;;;;9.53;5.63;;;;;;;9.07;82.30;96380.97;5070142;28;20193;-77
2023/04/11 05:37:44;;;;;;;7.07;5.80;;;;;;;8.96;82.02;96357.47;5071515;28;20193;-75
2023/04/11 05:40:12;;;;;;;7.80;5.77;;;;;;;9.02;81.68;96381.22;5070196;28;20184;-84
2023/04/11 05:42:39;;;;;;;6.70;5.20;;;;;;;8.88;82.15;96385.41;5054965;28;20193;-77
2023/04/11 05:45:06;;;;;;;8.97;5.37;;;;;;;8.93;81.89;96371.34;5072532;28;20649;-76
2023/04/11 05:47:33;;;;;;;7.60;5.60;;;;;;;8.99;82.71;96373.63;5088195;28;20281;-78
2023/04/11 05:50:01;;;;;;;7.30;5.77;;;;;;;8.93;82.59;96373.09;5071963;28;20220;-76
2023/04/11 05:52:29;;;;;;;7.47;5.20;;;;;;;8.89;83.16;96369.84;5088673;28;20750;-80
2023/04/11 05:54:56;;;;;;;7.17;5.07;;;;;;;9.01;83.54;96370.97;5053664;28;20267;-78
2023/04/11 05:57:23;;;;;;;9.27;5.63;;;;;;;9.10;83.48;96367.09;5089045;28;20210;-79
2023/04/11 05:59:51;;;;;;;15.67;9.13;;;;;;;9.07;82.75;96364.66;5089063;28;20224;-82
2023/04/11 06:02:18;;;;;;;7.70;5.57;;;;;;;9.07;82.99;96364.66;5088364;28;20255;-82
2023/04/11 06:04:46;;;;;;;7.27;5.23;;;;;;;9.21;82.06;96377.72;5088964;28;20217;-85
2023/04/11 06:07:13;;;;;;;7.60;6.20;;;;;;;9.22;81.71;96372.47;5070638;28;20261;-86
2023/04/11 06:09:41;;;;;;;9.40;6.77;;;;;;;9.28;81.98;96358.38;5071975;28;20219;-81
2023/04/11 06:12:09;;;;;;;7.60;6.27;;;;;;;9.14;80.79;96351.34;5088173;28;20310;-83
2023/04/11 06:14:36;;;;;;;8.10;6.10;;;;;;;9.28;81.84;96358.38;5087747;28;20181;-79
2023/04/11 06:17:06;;;;;;;10.67;7.27;;;;;;;9.14;80.79;96356.53;5052798;28;20220;-81
2023/04/11 06:19:33;;;;;;;11.77;8.63;;;;;;;9.32;80.61;96357.31;5068997;28;20196;-82
2023/04/11 06:22:00;;;;;;;12.77;9.13;;;;;;;9.16;80.21;96333.19;5086813;28;20220;-78
2023/04/11 06:24:38;;;;;;;13.30;9.30;;;;;;;9.32;80.67;96360.75;5087409;28;20196;-75
2023/04/11 06:27:09;;;;;;;12.30;9.13;;;;;;;9.19;80.38;96359.69;5070221;28;20577;-82
2023/04/11 06:29:37;;;;;;;13.10;9.20;;;;;;;9.26;81.31;96345.56;5087611;28;20367;-81
2023/04/11 06:32:05;;;;;;;16.97;10.53;;;;;;;9.30;81.67;96344.47;5086428;28;20228;-86
2023/04/11 06:34:33;;;;;;;17.43;11.23;;;;;;;9.39;81.19;96341.44;5069154;28;20790;-83
2023/04/11 06:37:00;;;;;;;13.33;10.53;;;;;;;9.35;80.67;96319.25;5068786;28;20185;-79
2023/04/11 06:39:27;;;;;;;15.87;10.47;;;;;;;9.16;80.40;96281.53;5035528;28;20199;-77
2023/04/11 06:41:55;;;;;;;13.33;9.87;;;;;;;9.54;80.38;96326.88;5068648;28;20228;-77
2023/04/11 06:44:25;;;;;;;13.57;9.87;;;;;;;9.46;78.60;96321.28;5069030;28;20204;-81
2023/04/11 06:46:52;;;;;;;13.70;9.23;;;;;;;9.52;79.13;96337.28;5087643;28;20192;-78
2023/04/11 06:49:20;;;;;;;12.13;8.67;;;;;;;9.55;79.07;96341.44;5087713;28;20275;-77
2023/04/11 06:51:50;;;;;;;14.13;9.57;;;;;;;9.53;79.26;96336.38;5088085;28;20208;-81
2023/04/11 06:54:17;;;;;;;10.83;8.03;;;;;;;9.54;77.38;96335.44;5086783;28;20275;-83
2023/04/11 06:56:46;;;;;;;12.20;8.53;;;;;;;9.47;77.46;96313.44;5101654;28;20238;-80
2023/04/11 06:59:13;;;;;;;14.50;9.10;;;;;;;9.61;77.68;96334.22;5086202;28;20184;-78
2023/04/11 07:01:40;;;;;;;12.17;8.73;;;;;;;9.58;76.28;96326.59;5061755;28;20244;-77
2023/04/11 07:04:08;;;;;;;12.10;8.33;;;;;;;9.57;77.40;96324.94;5069772;28;20288;-82
2023/04/11 07:06:35;;;;;;;10.27;7.33;;;;;;;9.54;76.15;96338.03;5059530;28;20255;-80
2023/04/11 07:09:04;;;;;;;9.33;7.57;;;;;;;9.44;76.48;96329.09;5052144;28;20251;-88
2023/04/11 07:11:32;;;;;;;11.00;7.83;;;;;;;9.60;76.27;96335.13;5031297;28;20929;-85
2023/04/11 07:13:59;;;;;;;11.97;8.40;;;;;;;9.64;77.71;96339.19;5066561;28;20233;-85
2023/04/11 07:16:27;;;;;;;11.00;7.40;;;;;;;9.67;77.43;96339.06;5031872;28;20225;-76
2023/04/11 07:18:55;;;;;;;10.83;7.63;;;;;;;9.73;75.55;96338.72;5066840;28;20263;-80
2023/04/11 07:21:22;;;;;;;9.73;7.50;;;;;;;9.71;76.81;96329.38;5066226;28;20268;-85
2023/04/11 07:23:49;;;;;;;9.60;7.47;;;;;;;9.69;75.43;96319.13;5048696;28;20239;-77
2023/04/11 07:26:16;;;;;;;10.57;7.87;;;;;;;9.83;76.94;96333.88;5067691;28;20276;-78
2023/04/11 07:28:44;;;;;;;10.33;7.70;;;;;;;9.80;76.01;96315.97;5066270;28;20197;-86
2023/04/11 07:31:12;;;;;;;11.63;8.87;;;;;;;9.75;78.05;96305.88;5068073;28;20201;-85
2023/04/11 07:33:43;;;;;;;11.77;7.93;;;;;;;9.94;76.46;96328.13;5049148;28;20194;-81
2023/04/11 07:36:10;;;;;;;9.10;6.97;;;;;;;9.83;75.86;96321.78;5066689;28;20573;-83
2023/04/11 07:38:37;;;;;;;10.97;8.10;;;;;;;9.83;78.00;96326.13;5067006;28;20713;-84
2023/04/11 07:41:05;;;;;;;9.73;6.83;;;;;;;9.71;75.76;96309.53;5069121;28;20233;-77
2023/04/11 07:43:32;;;;;;;9.93;6.80;;;;;;;9.82;76.95;96320.13;5087307;28;20224;-84
2023/04/11 07:45:59;;;;;;;11.97;7.53;;;;;;;9.80;76.65;96327.16;5071820;28;20667;-86
2023/04/11 07:48:27;;;;;;;11.40;7.43;;;;;;;10.01;76.84;96324.31;5073874;28;20188;-76
2023/04/11 07:50:54;;;;;;;11.20;7.90;;;;;;;9.95;75.29;96303.94;5093547;28;20218;-81
2023/04/11 07:53:21;;;;;;;10.27;8.10;;;;;;;10.17;75.27;96312.22;5097329;28;20234;-83
2023/04/11 07:55:49;;;;;;;9.83;6.70;;;;;;;10.28;76.75;96317.63;5074476;28;20645;-84
2023/04/11 07:58:16;;;;;;;10.17;7.53;;;;;;;10.21;75.65;96300.78;5090878;28;20192;-83
2023/04/11 08:00:43;;;;;;;9.47;6.47;;;;;;;10.28;76.30;96309.88;5091434;28;20564;-82
2023/04/11 08:03:12;;;;;;;7.70;5.80;;;;;;;10.26;74.39;96315.09;5073062;28;20587;-85
2023/04/11 08:05:39;;;;;;;8.20;6.47;;;;;;;10.23;74.27;96330.81;5091246;28;20188;-88
2023/04/11 08:08:06;;;;;;;10.77;6.87;;;;;;;10.10;75.20;96311.72;5090983;28;20709;-84
2023/04/11 08:10:33;;;;;;;8.43;6.70;;;;;;;10.17;72.74;96305.28;5073147;28;20637;-79
2023/04/11 08:13:00;;;;;;;7.93;6.10;;;;;;;10.27;74.74;96296.09;5092587;28;20763;-86
2023/04/11 08:15:27;;;;;;;9.40;6.87;;;;;;;10.23;73.52;96299.78;5096111;28;20197;-83
2023/04/11 08:17:55;;;;;;;8.17;7.00;;;;;;;10.31;73.50;96296.75;5076933;28;20738;-84
2023/04/11 08:20:23;;;;;;;10.47;7.70;;;;;;;10.36;73.96;96285.22;5089215;28;20193;-87
2023/04/11 08:22:50;;;;;;;6.60;5.63;;;;;;;10.38;73.86;96292.91;5089876;28;20251;-84
2023/04/11 08:25:21;;;;;;;8.83;6.67;;;;;;;10.44;73.52;96283.03;5089905;28;20185;-82
2023/04/11 08:27:49;;;;;;;8.00;6.20;;;;;;;10.27;72.46;96233.16;5090310;28;20173;-85
2023/04/11 08:30:16;;;;;;;8.97;6.73;;;;;;;10.60;71.96;96276.06;5089289;28;20178;-84
2023/04/11 08:32:43;;;;;;;8.47;6.13;;;;;;;10.62;70.28;96265.59;5071284;28;20197;-79
2023/04/11 08:35:11;;;;;;;8.73;7.00;;;;;;;10.70;70.15;96249.59;5089126;28;20685;-88
2023/04/11 08:37:38;;;;;;;8.90;6.77;;;;;;;10.93;69.46;96260.28;5070810;28;20218;-90
2023/04/11 08:40:06;;;;;;;8.83;6.77;;;;;;;10.94;68.64;96248.16;5089572;28;20217;-87
2023/04/11 08:42:34;;;;;;;10.17;7.50;;;;;;;11.20;70.21;96258.63;5089037;28;20244;-87
2023/04/11 08:45:07;;;;;;;9.87;7.07;;;;;;;11.46;69.86;96250.09;5089294;28;20186;-80
2023/04/11 08:47:35;;;;;;;9.23;7.30;;;;;;;11.53;68.20;96249.69;5088521;28;20191;-85
2023/04/11 08:50:04;;;;;;;9.20;7.03;;;;;;;11.38;66.21;96230.75;5088805;28;20271;-87
2023/04/11 08:52:32;;;;;;;10.70;8.33;;;;;;;11.51;66.70;96238.59;5070161;28;20197;-88
2023/04/11 08:55:00;;;;;;;12.63;9.27;;;;;;;11.55;67.02;96251.28;5069830;28;20284;-86
2023/04/11 08:57:33;;;;;;;12.60;9.83;;;;;;;11.54;67.55;96234.03;5071036;28;20189;-86
2023/04/11 09:00:17;;;;;;;11.27;9.03;;;;;;;11.48;68.64;96244.78;5089178;28;20193;-85
2023/04/11 09:02:55;;;;;;;11.57;8.30;;;;;;;11.56;67.67;96234.78;5089750;28;20243;-85
2023/04/11 09:05:33;;;;;;;10.80;8.77;;;;;;;11.49;67.16;96233.50;5098244;28;20251;-87
2023/04/11 09:08:03;;;;;;;14.00;10.77;;;;;;;11.49;68.20;96230.91;5074565;28;20194;-85
2023/04/11 09:10:30;;;;;;;11.30;8.23;;;;;;;11.55;67.27;96237.47;5072442;28;20620;-82
2023/04/11 09:12:58;;;;;;;12.77;10.10;;;;;;;11.42;67.70;96220.09;5090925;28;20184;-78
2023/04/11 09:15:27;;;;;;;13.00;10.20;;;;;;;11.45;66.77;96217.31;5089865;28;20188;-81
2023/04/11 09:17:55;;;;;;;15.67;10.67;;;;;;;11.56;67.06;96223.59;5088379;28;20193;-80
2023/04/11 09:20:29;;;;;;;15.93;11.13;;;;;;;11.70;65.22;96221.00;5088178;28;20186;-80
2023/04/11 09:23:00;;;;;;;18.23;10.73;;;;;;;11.70;63.85;96216.66;5087849;28;20281;-82
2023/04/11 09:25:27;;;;;;;14.13;9.50;;;;;;;11.65;62.94;96223.84;5089032;28;20236;-85
2023/04/11 09:28:08;;;;;;;12.30;9.27;;;;;;;11.68;61.89;96207.28;5088283;28;20218;-81
2023/04/11 09:30:36;;;;;;;11.77;8.53;;;;;;;11.68;60.92;96215.06;5087549;28;20644;-85
2023/04/11 09:33:21;;;;;;;11.30;8.80;;;;;;;11.71;62.76;96233.03;5089232;28;20186;-79
2023/04/11 09:35:53;;;;;;;12.33;9.03;;;;;;;11.70;62.12;96210.63;5087642;28;20211;-87
2023/04/11 09:38:35;;;;;;;13.73;10.03;;;;;;;11.90;62.43;96212.78;5087594;28;20685;-80
2023/04/11 09:41:03;;;;;;;14.80;11.70;;;;;;;11.97;62.91;96203.69;5088800;28;20217;-86
2023/04/11 09:43:56;;;;;;;12.20;9.27;;;;;;;12.07;61.05;96226.34;5089303;28;20665;-74
2023/04/11 09:46:24;;;;;;;11.70;9.20;;;;;;;11.84;60.62;96221.78;5088157;28;20250;-81
2023/04/11 09:48:53;;;;;;;12.53;9.23;;;;;;;11.90;60.28;96203.22;5087568;28;20182;-87
2023/04/11 09:51:20;;;;;;;14.53;9.10;;;;;;;11.83;59.26;96185.56;5087603;28;20679;-86
2023/04/11 09:54:02;;;;;;;20.50;9.40;;;;;;;12.03;59.15;96193.75;5054764;28;20718;-80
2023/04/11 09:56:30;;;;;;;12.23;9.00;;;;;;;11.96;59.04;96170.84;5086425;28;20219;-82
2023/04/11 09:58:59;;;;;;;12.60;8.20;;;;;;;11.95;59.19;96179.59;5086656;28;20201;-78
2023/04/11 10:01:26;;;;;;;12.40;8.23;;;;;;;12.00;58.58;96162.78;5086330;28;20295;-79
2023/04/11 10:03:54;;;;;;;10.83;8.10;;;;;;;12.11;58.61;96178.50;5086772;28;20182;-80
2023/04/11 10:06:37;;;;;;;11.03;7.53;;;;;;;12.10;58.17;96168.19;5087726;28;20193;-76
2023/04/11 10:09:10;;;;;;;12.23;7.47;;;;;;;11.91;58.39;96127.03;5085987;28;20189;-84
2023/04/11 10:11:44;;;;;;;13.07;7.77;;;;;;;12.00;56.38;96120.44;5087304;28;20695;-80
2023/04/11 10:14:44;;;;;;;12.10;7.10;;;;;;;12.05;56.48;96160.72;5068396;28;20191;-82
2023/04/11 10:17:19;;;;;;;10.90;7.53;;;;;;;12.02;56.25;96170.47;5012802;28;20557;-83
2023/04/11 10:19:56;;;;;;;12.00;7.30;;;;;;;11.68;56.63;96139.88;5066477;28;20196;-81
2023/04/11 10:22:45;;;;;;;12.63;5.90;;;;;;;11.70;56.52;96184.69;5066594;28;20228;-78
2023/04/11 10:25:19;;;;;;;10.73;7.43;;;;;;;11.73;57.30;96163.72;5081362;28;20189;-85
2023/04/11 10:28:02;;;;;;;8.33;6.63;;;;;;;11.65;57.24;96160.75;5079110;28;20198;-82
2023/04/11 10:30:38;;;;;;;9.00;7.10;;;;;;;11.67;57.98;96161.53;5085603;28;20758;-81
2023/04/11 10:33:10;;;;;;;10.57;7.40;;;;;;;11.71;57.27;96163.00;5086750;28;20272;-84
2023/04/11 10:36:11;;;;;;;9.53;6.70;;;;;;;11.72;58.47;96143.91;5087054;28;20182;-81
2023/04/11 10:38:47;;;;;;;10.70;7.40;;;;;;;11.64;58.24;96153.94;5070560;28;20184;-80
2023/04/11 10:41:21;;;;;;;9.00;7.47;;;;;;;11.60;57.50;96149.88;5087592;28;20284;-82
2023/04/11 10:43:48;;;;;;;9.73;6.13;;;;;;;11.54;57.29;96147.66;5050692;28;20193;-81
2023/04/11 10:46:25;;;;;;;9.33;6.83;;;;;;;11.56;57.45;96138.84;5070421;28;20203;-78
2023/04/11 10:49:00;;;;;;;13.10;7.90;;;;;;;11.72;57.83;96124.00;5066650;28;20182;-79
2023/04/11 10:51:32;;;;;;;11.63;7.67;;;;;;;11.77;56.15;96116.75;5067126;28;20571;-84
2023/04/11 10:53:59;;;;;;;12.43;7.30;;;;;;;11.73;56.19;96123.06;5082105;28;20675;-85
2023/04/11 10:56:39;;;;;;;8.57;6.00;;;;;;;11.69;57.16;96111.22;5066511;28;20196;-86
2023/04/11 10:59:08;;;;;;;9.20;6.53;;;;;;;11.69;56.66;96115.56;5088744;28;20196;-81
2023/04/11 11:02:18;;;;;;;12.23;7.20;;;;;;;11.83;56.39;96118.94;5084389;28;20264;-80
2023/04/11 11:04:59;;;;;;;8.80;6.33;;;;;;;11.78;55.83;96102.03;5072130;28;20272;-82
2023/04/11 11:07:26;;;;;;;8.33;6.63;;;;;;;11.75;55.50;96126.38;5087809;28;20230;-85
2023/04/11 11:09:53;;;;;;;8.33;6.03;;;;;;;11.73;55.63;96122.22;5087715;28;20186;-85
2023/04/11 11:12:20;;;;;;;7.80;5.90;;;;;;;11.67;55.53;96122.63;5069230;28;20254;-81
2023/04/11 11:14:47;;;;;;;6.97;5.97;;;;;;;11.58;56.20;96116.22;5087543;28;20192;-84
2023/04/11 11:17:16;;;;;;;9.13;6.20;;;;;;;11.53;56.08;96091.53;5086620;28;20225;-84
2023/04/11 11:19:44;;;;;;;7.43;6.07;;;;;;;11.54;55.06;96112.19;5071169;28;20201;-81
2023/04/11 11:22:15;;;;;;;8.10;5.70;;;;;;;11.59;55.48;96111.88;5074264;28;20651;-79
2023/04/11 11:24:42;;;;;;;14.27;6.63;;;;;;;11.69;54.88;96092.22;5090969;28;20191;-81
2023/04/11 11:27:23;;;;;;;7.03;6.13;;;;;;;11.68;55.29;96103.56;5090467;28;20214;-84
2023/04/11 11:29:51;;;;;;;8.10;5.93;;;;;;;11.73;55.26;96085.91;5090144;28;20192;-80
2023/04/11 11:32:31;;;;;;;9.23;6.20;;;;;;;11.58;55.85;96066.97;5090452;28;20192;-85
2023/04/11 11:34:59;;;;;;;8.60;6.47;;;;;;;11.64;55.36;96068.34;5091345;28;20214;-85
2023/04/11 11:37:26;;;;;;;9.23;6.63;;;;;;;11.74;55.86;96077.22;5090522;28;20183;-78
2023/04/11 11:39:53;;;;;;;8.80;6.13;;;;;;;11.73;55.62;96078.13;5089775;28;20185;-79
2023/04/11 11:42:20;;;;;;;8.93;6.63;;;;;;;11.67;56.39;96057.78;5089546;28;20223;-84